sensor_id;sensor_type;location;lat;lon;timestamp;P1;durP1;ratioP1;P2;durP2;ratioP2
4895;SDS011;2463;49.948;8.472;2023-07-24T00:00:14;93.27;;;6.17;;
4895;SDS011;2463;49.948;8.472;2023-07-24T00:02:41;92.57;;;6.90;;
4895;SDS011;2463;49.948;8.472;2023-07-24T00:05:08;93.10;;;5.57;;
4895;SDS011;2463;49.948;8.472;2023-07-24T00:07:36;89.87;;;5.27;;
4895;SDS011;2463;49.948;8.472;2023-07-24T00:10:03;91.70;;;5.27;;
4895;SDS011;2463;49.948;8.472;2023-07-24T00:12:30;92.17;;;5.97;;
4895;SDS011;2463;49.948;8.472;2023-07-24T00:14:57;89.00;;;5.20;;
4895;SDS011;2463;49.948;8.472;2023-07-24T00:17:24;90.10;;;5.20;;
4895;SDS011;2463;49.948;8.472;2023-07-24T00:19:51;89.17;;;4.80;;
4895;SDS011;2463;49.948;8.472;2023-07-24T00:22:18;89.37;;;5.33;;
4895;SDS011;2463;49.948;8.472;2023-07-24T00:24:45;90.03;;;5.83;;
4895;SDS011;2463;49.948;8.472;2023-07-24T00:27:11;90.17;;;5.30;;
4895;SDS011;2463;49.948;8.472;2023-07-24T00:29:40;89.80;;;5.97;;
4895;SDS011;2463;49.948;8.472;2023-07-24T00:32:06;91.20;;;5.93;;
4895;SDS011;2463;49.948;8.472;2023-07-24T00:34:33;91.47;;;5.83;;
4895;SDS011;2463;49.948;8.472;2023-07-24T00:37:00;91.40;;;5.93;;
4895;SDS011;2463;49.948;8.472;2023-07-24T00:39:27;88.87;;;5.30;;
4895;SDS011;2463;49.948;8.472;2023-07-24T00:41:55;89.57;;;5.40;;
4895;SDS011;2463;49.948;8.472;2023-07-24T00:44:22;90.67;;;5.00;;
4895;SDS011;2463;49.948;8.472;2023-07-24T00:46:49;89.10;;;4.80;;
4895;SDS011;2463;49.948;8.472;2023-07-24T00:49:16;89.43;;;5.20;;
4895;SDS011;2463;49.948;8.472;2023-07-24T00:51:44;87.07;;;4.60;;
4895;SDS011;2463;49.948;8.472;2023-07-24T00:54:11;90.17;;;4.30;;
4895;SDS011;2463;49.948;8.472;2023-07-24T00:56:43;86.67;;;4.30;;
4895;SDS011;2463;49.948;8.472;2023-07-24T00:59:11;90.77;;;4.90;;
4895;SDS011;2463;49.948;8.472;2023-07-24T01:01:38;88.07;;;4.50;;
4895;SDS011;2463;49.948;8.472;2023-07-24T01:04:07;86.47;;;4.30;;
4895;SDS011;2463;49.948;8.472;2023-07-24T01:06:34;88.57;;;4.10;;
4895;SDS011;2463;49.948;8.472;2023-07-24T01:09:01;87.47;;;4.50;;
4895;SDS011;2463;49.948;8.472;2023-07-24T01:11:28;88.77;;;4.50;;
4895;SDS011;2463;49.948;8.472;2023-07-24T01:14:04;88.40;;;4.90;;
4895;SDS011;2463;49.948;8.472;2023-07-24T01:16:37;88.67;;;5.20;;
4895;SDS011;2463;49.948;8.472;2023-07-24T01:19:10;86.70;;;4.50;;
4895;SDS011;2463;49.948;8.472;2023-07-24T01:24:36;90.07;;;5.20;;
4895;SDS011;2463;49.948;8.472;2023-07-24T01:27:25;87.60;;;4.37;;
4895;SDS011;2463;49.948;8.472;2023-07-24T01:29:52;88.00;;;4.70;;
4895;SDS011;2463;49.948;8.472;2023-07-24T01:32:19;88.47;;;4.50;;
4895;SDS011;2463;49.948;8.472;2023-07-24T01:34:46;86.40;;;4.03;;
4895;SDS011;2463;49.948;8.472;2023-07-24T01:37:14;88.03;;;4.30;;
4895;SDS011;2463;49.948;8.472;2023-07-24T01:39:41;87.63;;;4.73;;
4895;SDS011;2463;49.948;8.472;2023-07-24T01:42:09;87.47;;;4.60;;
4895;SDS011;2463;49.948;8.472;2023-07-24T01:44:37;86.87;;;4.33;;
4895;SDS011;2463;49.948;8.472;2023-07-24T01:47:03;87.60;;;4.43;;
4895;SDS011;2463;49.948;8.472;2023-07-24T01:49:30;87.67;;;4.33;;
4895;SDS011;2463;49.948;8.472;2023-07-24T01:51:57;88.40;;;4.53;;
4895;SDS011;2463;49.948;8.472;2023-07-24T01:54:24;91.60;;;4.70;;
4895;SDS011;2463;49.948;8.472;2023-07-24T01:56:51;86.60;;;4.00;;
4895;SDS011;2463;49.948;8.472;2023-07-24T01:59:18;87.37;;;4.57;;
4895;SDS011;2463;49.948;8.472;2023-07-24T02:01:45;88.37;;;5.30;;
4895;SDS011;2463;49.948;8.472;2023-07-24T02:04:11;89.17;;;4.47;;
4895;SDS011;2463;49.948;8.472;2023-07-24T02:06:38;88.27;;;4.40;;
4895;SDS011;2463;49.948;8.472;2023-07-24T02:09:05;87.77;;;4.53;;
4895;SDS011;2463;49.948;8.472;2023-07-24T02:11:31;87.47;;;4.30;;
4895;SDS011;2463;49.948;8.472;2023-07-24T02:13:59;89.40;;;4.33;;
4895;SDS011;2463;49.948;8.472;2023-07-24T02:16:25;86.77;;;4.03;;
4895;SDS011;2463;49.948;8.472;2023-07-24T02:18:53;87.00;;;4.30;;
4895;SDS011;2463;49.948;8.472;2023-07-24T02:21:19;87.27;;;3.83;;
4895;SDS011;2463;49.948;8.472;2023-07-24T02:23:46;87.10;;;4.27;;
4895;SDS011;2463;49.948;8.472;2023-07-24T02:26:13;88.07;;;4.23;;
4895;SDS011;2463;49.948;8.472;2023-07-24T02:28:39;88.37;;;4.10;;
4895;SDS011;2463;49.948;8.472;2023-07-24T02:31:06;88.27;;;4.50;;
4895;SDS011;2463;49.948;8.472;2023-07-24T02:33:33;87.90;;;4.13;;
4895;SDS011;2463;49.948;8.472;2023-07-24T02:36:00;86.10;;;4.05;;
4895;SDS011;2463;49.948;8.472;2023-07-24T02:38:27;89.67;;;4.60;;
4895;SDS011;2463;49.948;8.472;2023-07-24T02:40:54;89.87;;;4.67;;
4895;SDS011;2463;49.948;8.472;2023-07-24T02:43:20;90.33;;;4.90;;
4895;SDS011;2463;49.948;8.472;2023-07-24T02:45:47;88.47;;;5.17;;
4895;SDS011;2463;49.948;8.472;2023-07-24T02:48:14;91.27;;;5.30;;
4895;SDS011;2463;49.948;8.472;2023-07-24T02:50:41;89.75;;;4.50;;
4895;SDS011;2463;49.948;8.472;2023-07-24T02:53:07;89.20;;;4.90;;
4895;SDS011;2463;49.948;8.472;2023-07-24T02:55:34;88.60;;;5.03;;
4895;SDS011;2463;49.948;8.472;2023-07-24T02:58:01;88.43;;;4.90;;
4895;SDS011;2463;49.948;8.472;2023-07-24T03:00:28;88.60;;;4.70;;
4895;SDS011;2463;49.948;8.472;2023-07-24T03:02:54;92.70;;;4.70;;
4895;SDS011;2463;49.948;8.472;2023-07-24T03:05:21;89.63;;;5.10;;
4895;SDS011;2463;49.948;8.472;2023-07-24T03:07:48;90.57;;;4.70;;
4895;SDS011;2463;49.948;8.472;2023-07-24T03:10:15;89.60;;;5.03;;
4895;SDS011;2463;49.948;8.472;2023-07-24T03:12:42;89.93;;;5.10;;
4895;SDS011;2463;49.948;8.472;2023-07-24T03:15:08;90.32;;;5.05;;
4895;SDS011;2463;49.948;8.472;2023-07-24T03:17:35;87.90;;;4.33;;
4895;SDS011;2463;49.948;8.472;2023-07-24T03:20:13;89.40;;;4.67;;
4895;SDS011;2463;49.948;8.472;2023-07-24T03:22:42;89.37;;;4.70;;
4895;SDS011;2463;49.948;8.472;2023-07-24T03:25:09;90.50;;;4.87;;
4895;SDS011;2463;49.948;8.472;2023-07-24T03:27:36;93.00;;;4.80;;
4895;SDS011;2463;49.948;8.472;2023-07-24T03:30:03;89.70;;;5.30;;
4895;SDS011;2463;49.948;8.472;2023-07-24T03:32:30;89.37;;;4.97;;
4895;SDS011;2463;49.948;8.472;2023-07-24T03:34:57;90.00;;;5.00;;
4895;SDS011;2463;49.948;8.472;2023-07-24T03:37:23;89.67;;;5.00;;
4895;SDS011;2463;49.948;8.472;2023-07-24T03:39:50;90.10;;;5.37;;
4895;SDS011;2463;49.948;8.472;2023-07-24T03:42:27;90.60;;;5.30;;
4895;SDS011;2463;49.948;8.472;2023-07-24T03:44:56;90.38;;;4.75;;
4895;SDS011;2463;49.948;8.472;2023-07-24T03:47:23;92.28;;;5.18;;
4895;SDS011;2463;49.948;8.472;2023-07-24T03:49:50;89.17;;;4.73;;
4895;SDS011;2463;49.948;8.472;2023-07-24T03:52:17;89.87;;;4.63;;
4895;SDS011;2463;49.948;8.472;2023-07-24T03:54:44;90.07;;;5.17;;
4895;SDS011;2463;49.948;8.472;2023-07-24T03:57:11;89.97;;;4.80;;
4895;SDS011;2463;49.948;8.472;2023-07-24T03:59:38;89.28;;;5.22;;
4895;SDS011;2463;49.948;8.472;2023-07-24T04:02:05;89.93;;;4.88;;
4895;SDS011;2463;49.948;8.472;2023-07-24T04:04:36;90.83;;;4.90;;
4895;SDS011;2463;49.948;8.472;2023-07-24T04:07:03;89.87;;;5.33;;
4895;SDS011;2463;49.948;8.472;2023-07-24T04:09:30;90.40;;;4.90;;
4895;SDS011;2463;49.948;8.472;2023-07-24T04:11:57;94.28;;;4.90;;
4895;SDS011;2463;49.948;8.472;2023-07-24T04:14:24;89.50;;;5.03;;
4895;SDS011;2463;49.948;8.472;2023-07-24T04:16:51;90.95;;;4.80;;
4895;SDS011;2463;49.948;8.472;2023-07-24T04:19:18;89.60;;;4.73;;
4895;SDS011;2463;49.948;8.472;2023-07-24T04:21:44;89.82;;;4.78;;
4895;SDS011;2463;49.948;8.472;2023-07-24T04:24:11;91.22;;;5.28;;
4895;SDS011;2463;49.948;8.472;2023-07-24T04:26:38;88.83;;;4.43;;
4895;SDS011;2463;49.948;8.472;2023-07-24T04:29:06;92.70;;;5.33;;
4895;SDS011;2463;49.948;8.472;2023-07-24T04:31:33;91.73;;;5.80;;
4895;SDS011;2463;49.948;8.472;2023-07-24T04:33:59;90.47;;;5.00;;
4895;SDS011;2463;49.948;8.472;2023-07-24T04:36:26;88.53;;;4.47;;
4895;SDS011;2463;49.948;8.472;2023-07-24T04:38:53;91.93;;;5.38;;
4895;SDS011;2463;49.948;8.472;2023-07-24T04:41:20;91.38;;;5.32;;
4895;SDS011;2463;49.948;8.472;2023-07-24T04:43:47;90.67;;;5.70;;
4895;SDS011;2463;49.948;8.472;2023-07-24T04:46:13;90.57;;;5.77;;
4895;SDS011;2463;49.948;8.472;2023-07-24T04:48:40;91.93;;;4.77;;
4895;SDS011;2463;49.948;8.472;2023-07-24T04:51:07;92.15;;;5.22;;
4895;SDS011;2463;49.948;8.472;2023-07-24T04:53:34;91.77;;;5.63;;
4895;SDS011;2463;49.948;8.472;2023-07-24T04:56:00;90.20;;;5.27;;
4895;SDS011;2463;49.948;8.472;2023-07-24T04:58:27;91.50;;;5.77;;
4895;SDS011;2463;49.948;8.472;2023-07-24T05:00:54;92.13;;;4.77;;
4895;SDS011;2463;49.948;8.472;2023-07-24T05:03:20;90.90;;;4.90;;
4895;SDS011;2463;49.948;8.472;2023-07-24T05:05:48;89.10;;;4.90;;
4895;SDS011;2463;49.948;8.472;2023-07-24T05:08:15;98.40;;;5.80;;
4895;SDS011;2463;49.948;8.472;2023-07-24T05:10:42;88.57;;;4.70;;
4895;SDS011;2463;49.948;8.472;2023-07-24T05:13:09;92.83;;;4.97;;
4895;SDS011;2463;49.948;8.472;2023-07-24T05:15:38;87.40;;;4.40;;
4895;SDS011;2463;49.948;8.472;2023-07-24T05:18:05;89.30;;;4.80;;
4895;SDS011;2463;49.948;8.472;2023-07-24T05:20:32;89.47;;;5.13;;
4895;SDS011;2463;49.948;8.472;2023-07-24T05:22:58;91.37;;;5.43;;
4895;SDS011;2463;49.948;8.472;2023-07-24T05:25:25;91.57;;;5.13;;
4895;SDS011;2463;49.948;8.472;2023-07-24T05:27:52;90.87;;;4.70;;
4895;SDS011;2463;49.948;8.472;2023-07-24T05:30:18;89.60;;;5.20;;
4895;SDS011;2463;49.948;8.472;2023-07-24T05:32:45;88.50;;;4.90;;
4895;SDS011;2463;49.948;8.472;2023-07-24T05:35:12;90.77;;;5.53;;
4895;SDS011;2463;49.948;8.472;2023-07-24T05:37:39;90.30;;;5.20;;
4895;SDS011;2463;49.948;8.472;2023-07-24T05:40:05;89.37;;;5.30;;
4895;SDS011;2463;49.948;8.472;2023-07-24T05:42:32;89.20;;;5.17;;
4895;SDS011;2463;49.948;8.472;2023-07-24T05:44:59;88.73;;;4.67;;
4895;SDS011;2463;49.948;8.472;2023-07-24T05:47:26;89.53;;;4.87;;
4895;SDS011;2463;49.948;8.472;2023-07-24T05:49:53;90.00;;;5.30;;
4895;SDS011;2463;49.948;8.472;2023-07-24T05:52:19;86.77;;;4.37;;
4895;SDS011;2463;49.948;8.472;2023-07-24T05:54:46;89.57;;;4.80;;
4895;SDS011;2463;49.948;8.472;2023-07-24T05:57:13;91.33;;;5.50;;
4895;SDS011;2463;49.948;8.472;2023-07-24T05:59:39;89.37;;;5.20;;
4895;SDS011;2463;49.948;8.472;2023-07-24T06:02:06;88.17;;;4.93;;
4895;SDS011;2463;49.948;8.472;2023-07-24T06:04:34;89.30;;;5.13;;
4895;SDS011;2463;49.948;8.472;2023-07-24T06:07:01;91.67;;;5.90;;
4895;SDS011;2463;49.948;8.472;2023-07-24T06:09:28;88.60;;;5.53;;
4895;SDS011;2463;49.948;8.472;2023-07-24T06:11:54;93.27;;;5.70;;
4895;SDS011;2463;49.948;8.472;2023-07-24T06:14:21;88.57;;;5.63;;
4895;SDS011;2463;49.948;8.472;2023-07-24T06:16:48;90.38;;;5.82;;
4895;SDS011;2463;49.948;8.472;2023-07-24T06:19:14;87.43;;;4.50;;
4895;SDS011;2463;49.948;8.472;2023-07-24T06:21:42;88.50;;;5.13;;
4895;SDS011;2463;49.948;8.472;2023-07-24T06:24:09;89.23;;;6.20;;
4895;SDS011;2463;49.948;8.472;2023-07-24T06:26:39;86.97;;;4.70;;
4895;SDS011;2463;49.948;8.472;2023-07-24T06:29:06;86.60;;;4.10;;
4895;SDS011;2463;49.948;8.472;2023-07-24T06:31:32;87.93;;;4.97;;
4895;SDS011;2463;49.948;8.472;2023-07-24T06:33:59;87.00;;;4.60;;
4895;SDS011;2463;49.948;8.472;2023-07-24T06:36:26;87.50;;;4.90;;
4895;SDS011;2463;49.948;8.472;2023-07-24T06:38:53;88.80;;;5.70;;
4895;SDS011;2463;49.948;8.472;2023-07-24T06:41:20;88.87;;;4.70;;
4895;SDS011;2463;49.948;8.472;2023-07-24T06:43:49;89.97;;;6.10;;
4895;SDS011;2463;49.948;8.472;2023-07-24T06:46:16;87.60;;;4.83;;
4895;SDS011;2463;49.948;8.472;2023-07-24T06:48:43;87.60;;;5.00;;
4895;SDS011;2463;49.948;8.472;2023-07-24T06:51:09;88.60;;;5.10;;
4895;SDS011;2463;49.948;8.472;2023-07-24T06:53:36;89.17;;;4.70;;
4895;SDS011;2463;49.948;8.472;2023-07-24T06:56:03;88.03;;;4.63;;
4895;SDS011;2463;49.948;8.472;2023-07-24T06:58:30;87.47;;;5.00;;
4895;SDS011;2463;49.948;8.472;2023-07-24T07:00:57;87.00;;;4.70;;
4895;SDS011;2463;49.948;8.472;2023-07-24T07:03:24;89.50;;;4.93;;
4895;SDS011;2463;49.948;8.472;2023-07-24T07:05:51;87.37;;;4.70;;
4895;SDS011;2463;49.948;8.472;2023-07-24T07:08:17;87.10;;;4.30;;
4895;SDS011;2463;49.948;8.472;2023-07-24T07:10:44;87.03;;;4.60;;
4895;SDS011;2463;49.948;8.472;2023-07-24T07:13:11;86.60;;;4.60;;
4895;SDS011;2463;49.948;8.472;2023-07-24T07:15:38;93.73;;;4.43;;
4895;SDS011;2463;49.948;8.472;2023-07-24T07:18:04;86.67;;;4.70;;
4895;SDS011;2463;49.948;8.472;2023-07-24T07:20:31;85.40;;;3.90;;
4895;SDS011;2463;49.948;8.472;2023-07-24T07:22:58;85.77;;;4.10;;
4895;SDS011;2463;49.948;8.472;2023-07-24T07:25:24;86.77;;;4.43;;
4895;SDS011;2463;49.948;8.472;2023-07-24T07:27:51;84.67;;;4.00;;
4895;SDS011;2463;49.948;8.472;2023-07-24T07:30:18;85.30;;;3.97;;
4895;SDS011;2463;49.948;8.472;2023-07-24T07:32:44;83.37;;;3.77;;
4895;SDS011;2463;49.948;8.472;2023-07-24T07:35:11;86.03;;;4.77;;
4895;SDS011;2463;49.948;8.472;2023-07-24T07:37:38;84.17;;;4.10;;
4895;SDS011;2463;49.948;8.472;2023-07-24T07:40:05;85.57;;;3.80;;
4895;SDS011;2463;49.948;8.472;2023-07-24T07:42:32;87.47;;;4.80;;
4895;SDS011;2463;49.948;8.472;2023-07-24T07:44:59;84.87;;;4.00;;
4895;SDS011;2463;49.948;8.472;2023-07-24T07:47:25;85.97;;;3.80;;
4895;SDS011;2463;49.948;8.472;2023-07-24T07:49:52;84.37;;;3.97;;
4895;SDS011;2463;49.948;8.472;2023-07-24T07:52:19;86.10;;;4.63;;
4895;SDS011;2463;49.948;8.472;2023-07-24T07:54:48;85.40;;;4.03;;
4895;SDS011;2463;49.948;8.472;2023-07-24T07:57:15;87.10;;;5.03;;
4895;SDS011;2463;49.948;8.472;2023-07-24T07:59:42;85.90;;;4.30;;
4895;SDS011;2463;49.948;8.472;2023-07-24T08:02:08;86.10;;;4.90;;
4895;SDS011;2463;49.948;8.472;2023-07-24T08:04:35;84.90;;;4.00;;
4895;SDS011;2463;49.948;8.472;2023-07-24T08:07:02;85.57;;;3.90;;
4895;SDS011;2463;49.948;8.472;2023-07-24T08:09:29;86.57;;;4.53;;
4895;SDS011;2463;49.948;8.472;2023-07-24T08:11:56;86.17;;;4.60;;
4895;SDS011;2463;49.948;8.472;2023-07-24T08:14:22;85.77;;;4.20;;
4895;SDS011;2463;49.948;8.472;2023-07-24T08:16:49;85.07;;;4.20;;
4895;SDS011;2463;49.948;8.472;2023-07-24T08:19:16;85.20;;;4.10;;
4895;SDS011;2463;49.948;8.472;2023-07-24T08:21:43;84.13;;;4.20;;
4895;SDS011;2463;49.948;8.472;2023-07-24T08:24:10;84.27;;;3.97;;
4895;SDS011;2463;49.948;8.472;2023-07-24T08:26:36;85.80;;;3.80;;
4895;SDS011;2463;49.948;8.472;2023-07-24T08:29:05;86.90;;;3.73;;
4895;SDS011;2463;49.948;8.472;2023-07-24T08:31:32;85.03;;;4.17;;
4895;SDS011;2463;49.948;8.472;2023-07-24T08:33:58;82.47;;;3.67;;
4895;SDS011;2463;49.948;8.472;2023-07-24T08:36:25;83.30;;;3.90;;
4895;SDS011;2463;49.948;8.472;2023-07-24T08:38:52;83.70;;;3.70;;
4895;SDS011;2463;49.948;8.472;2023-07-24T08:41:19;84.33;;;3.90;;
4895;SDS011;2463;49.948;8.472;2023-07-24T08:43:45;87.80;;;4.67;;
4895;SDS011;2463;49.948;8.472;2023-07-24T08:46:12;83.20;;;3.70;;
4895;SDS011;2463;49.948;8.472;2023-07-24T08:48:41;83.67;;;4.10;;
4895;SDS011;2463;49.948;8.472;2023-07-24T08:51:09;84.97;;;4.33;;
4895;SDS011;2463;49.948;8.472;2023-07-24T08:53:41;86.00;;;4.13;;
4895;SDS011;2463;49.948;8.472;2023-07-24T08:56:09;83.80;;;3.87;;
4895;SDS011;2463;49.948;8.472;2023-07-24T08:58:38;84.40;;;4.30;;
4895;SDS011;2463;49.948;8.472;2023-07-24T09:01:08;85.00;;;4.17;;
4895;SDS011;2463;49.948;8.472;2023-07-24T09:03:35;85.60;;;4.50;;
4895;SDS011;2463;49.948;8.472;2023-07-24T09:06:02;86.10;;;4.17;;
4895;SDS011;2463;49.948;8.472;2023-07-24T09:08:36;85.47;;;4.00;;
4895;SDS011;2463;49.948;8.472;2023-07-24T09:11:07;82.57;;;3.57;;
4895;SDS011;2463;49.948;8.472;2023-07-24T09:13:35;85.00;;;4.37;;
4895;SDS011;2463;49.948;8.472;2023-07-24T09:16:03;84.60;;;3.90;;
4895;SDS011;2463;49.948;8.472;2023-07-24T09:18:40;87.37;;;4.30;;
4895;SDS011;2463;49.948;8.472;2023-07-24T09:21:08;84.30;;;4.20;;
4895;SDS011;2463;49.948;8.472;2023-07-24T09:23:36;85.90;;;4.43;;
4895;SDS011;2463;49.948;8.472;2023-07-24T09:26:06;87.10;;;4.80;;
4895;SDS011;2463;49.948;8.472;2023-07-24T09:28:34;87.03;;;4.77;;
4895;SDS011;2463;49.948;8.472;2023-07-24T09:31:01;86.80;;;5.13;;
4895;SDS011;2463;49.948;8.472;2023-07-24T09:33:38;86.70;;;4.37;;
4895;SDS011;2463;49.948;8.472;2023-07-24T09:36:07;85.97;;;4.27;;
4895;SDS011;2463;49.948;8.472;2023-07-24T09:38:35;84.77;;;3.90;;
4895;SDS011;2463;49.948;8.472;2023-07-24T09:41:05;85.87;;;4.30;;
4895;SDS011;2463;49.948;8.472;2023-07-24T09:43:33;87.90;;;4.27;;
4895;SDS011;2463;49.948;8.472;2023-07-24T09:46:07;86.00;;;4.60;;
4895;SDS011;2463;49.948;8.472;2023-07-24T09:48:35;86.23;;;4.30;;
4895;SDS011;2463;49.948;8.472;2023-07-24T09:51:05;87.80;;;5.63;;
4895;SDS011;2463;49.948;8.472;2023-07-24T09:53:39;87.03;;;4.60;;
4895;SDS011;2463;49.948;8.472;2023-07-24T09:56:14;88.67;;;5.00;;
4895;SDS011;2463;49.948;8.472;2023-07-24T09:58:43;86.47;;;4.43;;
4895;SDS011;2463;49.948;8.472;2023-07-24T10:01:11;85.97;;;4.33;;
4895;SDS011;2463;49.948;8.472;2023-07-24T10:03:38;87.13;;;5.13;;
4895;SDS011;2463;49.948;8.472;2023-07-24T10:06:09;87.87;;;5.03;;
4895;SDS011;2463;49.948;8.472;2023-07-24T10:08:38;86.93;;;4.80;;
4895;SDS011;2463;49.948;8.472;2023-07-24T10:11:06;85.67;;;4.30;;
4895;SDS011;2463;49.948;8.472;2023-07-24T10:13:40;85.90;;;4.43;;
4895;SDS011;2463;49.948;8.472;2023-07-24T10:16:08;86.87;;;4.00;;
4895;SDS011;2463;49.948;8.472;2023-07-24T10:18:41;84.87;;;4.40;;
4895;SDS011;2463;49.948;8.472;2023-07-24T10:21:10;86.27;;;4.83;;
4895;SDS011;2463;49.948;8.472;2023-07-24T10:23:40;88.00;;;4.57;;
4895;SDS011;2463;49.948;8.472;2023-07-24T10:26:09;84.17;;;4.03;;
4895;SDS011;2463;49.948;8.472;2023-07-24T10:28:37;84.20;;;4.40;;
4895;SDS011;2463;49.948;8.472;2023-07-24T10:31:19;84.90;;;3.80;;
4895;SDS011;2463;49.948;8.472;2023-07-24T10:33:48;83.37;;;3.70;;
4895;SDS011;2463;49.948;8.472;2023-07-24T10:36:19;81.70;;;3.37;;
4895;SDS011;2463;49.948;8.472;2023-07-24T10:38:52;82.97;;;4.03;;
4895;SDS011;2463;49.948;8.472;2023-07-24T10:41:20;84.50;;;4.20;;
4895;SDS011;2463;49.948;8.472;2023-07-24T10:43:48;83.50;;;4.00;;
4895;SDS011;2463;49.948;8.472;2023-07-24T10:46:16;85.97;;;4.30;;
4895;SDS011;2463;49.948;8.472;2023-07-24T10:48:48;84.20;;;4.40;;
4895;SDS011;2463;49.948;8.472;2023-07-24T10:51:17;84.53;;;3.90;;
4895;SDS011;2463;49.948;8.472;2023-07-24T10:53:45;84.00;;;4.07;;
4895;SDS011;2463;49.948;8.472;2023-07-24T10:56:14;83.10;;;4.37;;
4895;SDS011;2463;49.948;8.472;2023-07-24T10:58:41;83.33;;;4.10;;
4895;SDS011;2463;49.948;8.472;2023-07-24T11:01:08;83.67;;;4.30;;
4895;SDS011;2463;49.948;8.472;2023-07-24T11:03:37;82.33;;;3.87;;
4895;SDS011;2463;49.948;8.472;2023-07-24T11:06:11;82.00;;;3.63;;
4895;SDS011;2463;49.948;8.472;2023-07-24T11:08:40;84.27;;;4.50;;
4895;SDS011;2463;49.948;8.472;2023-07-24T11:11:07;82.50;;;4.00;;
4895;SDS011;2463;49.948;8.472;2023-07-24T11:13:34;83.17;;;4.07;;
4895;SDS011;2463;49.948;8.472;2023-07-24T11:16:04;83.17;;;3.83;;
4895;SDS011;2463;49.948;8.472;2023-07-24T11:18:43;83.60;;;3.83;;
4895;SDS011;2463;49.948;8.472;2023-07-24T11:21:20;82.87;;;3.57;;
4895;SDS011;2463;49.948;8.472;2023-07-24T11:23:49;84.17;;;4.07;;
4895;SDS011;2463;49.948;8.472;2023-07-24T11:26:20;83.20;;;3.97;;
4895;SDS011;2463;49.948;8.472;2023-07-24T11:28:49;84.47;;;4.20;;
4895;SDS011;2463;49.948;8.472;2023-07-24T11:31:16;83.93;;;4.27;;
4895;SDS011;2463;49.948;8.472;2023-07-24T11:33:49;82.67;;;3.90;;
4895;SDS011;2463;49.948;8.472;2023-07-24T11:36:17;82.77;;;4.10;;
4895;SDS011;2463;49.948;8.472;2023-07-24T11:38:45;82.37;;;3.60;;
4895;SDS011;2463;49.948;8.472;2023-07-24T11:41:12;83.40;;;4.20;;
4895;SDS011;2463;49.948;8.472;2023-07-24T11:43:45;81.57;;;4.00;;
4895;SDS011;2463;49.948;8.472;2023-07-24T11:46:25;82.50;;;3.70;;
4895;SDS011;2463;49.948;8.472;2023-07-24T11:48:53;85.00;;;3.73;;
4895;SDS011;2463;49.948;8.472;2023-07-24T11:51:26;83.67;;;3.90;;
4895;SDS011;2463;49.948;8.472;2023-07-24T11:54:05;82.70;;;3.90;;
4895;SDS011;2463;49.948;8.472;2023-07-24T11:56:38;81.97;;;3.83;;
4895;SDS011;2463;49.948;8.472;2023-07-24T11:59:23;81.00;;;3.90;;
4895;SDS011;2463;49.948;8.472;2023-07-24T12:01:50;82.70;;;3.43;;
4895;SDS011;2463;49.948;8.472;2023-07-24T12:04:17;83.80;;;4.03;;
4895;SDS011;2463;49.948;8.472;2023-07-24T12:06:44;83.00;;;4.00;;
4895;SDS011;2463;49.948;8.472;2023-07-24T12:09:11;82.37;;;3.27;;
4895;SDS011;2463;49.948;8.472;2023-07-24T12:11:44;82.33;;;3.73;;
4895;SDS011;2463;49.948;8.472;2023-07-24T12:14:15;83.60;;;3.90;;
4895;SDS011;2463;49.948;8.472;2023-07-24T12:16:42;81.37;;;3.60;;
4895;SDS011;2463;49.948;8.472;2023-07-24T12:19:09;84.80;;;4.30;;
4895;SDS011;2463;49.948;8.472;2023-07-24T12:21:35;83.37;;;3.90;;
4895;SDS011;2463;49.948;8.472;2023-07-24T12:24:02;82.50;;;3.60;;
4895;SDS011;2463;49.948;8.472;2023-07-24T12:26:29;83.13;;;4.10;;
4895;SDS011;2463;49.948;8.472;2023-07-24T12:28:56;84.97;;;4.00;;
4895;SDS011;2463;49.948;8.472;2023-07-24T12:31:24;82.50;;;3.57;;
4895;SDS011;2463;49.948;8.472;2023-07-24T12:33:50;83.10;;;4.10;;
4895;SDS011;2463;49.948;8.472;2023-07-24T12:36:17;82.67;;;4.30;;
4895;SDS011;2463;49.948;8.472;2023-07-24T12:38:44;82.13;;;3.50;;
4895;SDS011;2463;49.948;8.472;2023-07-24T12:41:11;81.90;;;3.90;;
4895;SDS011;2463;49.948;8.472;2023-07-24T12:43:37;81.33;;;3.63;;
4895;SDS011;2463;49.948;8.472;2023-07-24T12:46:04;80.30;;;3.37;;
4895;SDS011;2463;49.948;8.472;2023-07-24T12:48:31;80.70;;;3.37;;
4895;SDS011;2463;49.948;8.472;2023-07-24T12:50:58;83.50;;;3.70;;
4895;SDS011;2463;49.948;8.472;2023-07-24T12:53:26;81.80;;;3.77;;
4895;SDS011;2463;49.948;8.472;2023-07-24T12:56:03;81.40;;;3.53;;
4895;SDS011;2463;49.948;8.472;2023-07-24T12:58:29;83.50;;;4.53;;
4895;SDS011;2463;49.948;8.472;2023-07-24T13:00:56;82.40;;;3.83;;
4895;SDS011;2463;49.948;8.472;2023-07-24T13:03:23;81.53;;;3.27;;
4895;SDS011;2463;49.948;8.472;2023-07-24T13:05:50;84.40;;;4.23;;
4895;SDS011;2463;49.948;8.472;2023-07-24T13:08:17;83.00;;;3.63;;
4895;SDS011;2463;49.948;8.472;2023-07-24T13:10:48;83.20;;;3.43;;
4895;SDS011;2463;49.948;8.472;2023-07-24T13:13:14;83.90;;;3.80;;
4895;SDS011;2463;49.948;8.472;2023-07-24T13:15:41;84.30;;;4.30;;
4895;SDS011;2463;49.948;8.472;2023-07-24T13:18:08;83.30;;;4.17;;
4895;SDS011;2463;49.948;8.472;2023-07-24T13:20:51;82.53;;;4.30;;
4895;SDS011;2463;49.948;8.472;2023-07-24T13:23:18;84.40;;;4.30;;
4895;SDS011;2463;49.948;8.472;2023-07-24T13:25:44;83.00;;;3.90;;
4895;SDS011;2463;49.948;8.472;2023-07-24T13:28:11;85.57;;;4.50;;
4895;SDS011;2463;49.948;8.472;2023-07-24T13:30:38;83.17;;;3.23;;
4895;SDS011;2463;49.948;8.472;2023-07-24T13:33:05;83.33;;;4.17;;
4895;SDS011;2463;49.948;8.472;2023-07-24T13:35:31;83.57;;;3.97;;
4895;SDS011;2463;49.948;8.472;2023-07-24T13:37:58;84.03;;;4.20;;
4895;SDS011;2463;49.948;8.472;2023-07-24T13:40:25;85.37;;;4.67;;
4895;SDS011;2463;49.948;8.472;2023-07-24T13:42:52;87.40;;;5.13;;
4895;SDS011;2463;49.948;8.472;2023-07-24T13:45:19;85.63;;;4.50;;
4895;SDS011;2463;49.948;8.472;2023-07-24T13:47:45;85.27;;;4.63;;
4895;SDS011;2463;49.948;8.472;2023-07-24T13:50:12;85.87;;;4.50;;
4895;SDS011;2463;49.948;8.472;2023-07-24T13:52:39;87.83;;;4.63;;
4895;SDS011;2463;49.948;8.472;2023-07-24T13:55:06;86.90;;;4.93;;
4895;SDS011;2463;49.948;8.472;2023-07-24T13:57:33;86.20;;;4.70;;
4895;SDS011;2463;49.948;8.472;2023-07-24T13:59:59;87.87;;;4.93;;
4895;SDS011;2463;49.948;8.472;2023-07-24T14:02:26;84.43;;;4.37;;
4895;SDS011;2463;49.948;8.472;2023-07-24T14:04:53;85.80;;;5.23;;
4895;SDS011;2463;49.948;8.472;2023-07-24T14:07:20;88.23;;;5.10;;
4895;SDS011;2463;49.948;8.472;2023-07-24T14:09:47;86.40;;;4.90;;
4895;SDS011;2463;49.948;8.472;2023-07-24T14:12:14;88.37;;;4.80;;
4895;SDS011;2463;49.948;8.472;2023-07-24T14:14:40;86.37;;;5.03;;
4895;SDS011;2463;49.948;8.472;2023-07-24T14:17:07;85.13;;;4.50;;
4895;SDS011;2463;49.948;8.472;2023-07-24T14:19:34;86.27;;;4.50;;
4895;SDS011;2463;49.948;8.472;2023-07-24T14:22:00;85.77;;;4.67;;
4895;SDS011;2463;49.948;8.472;2023-07-24T14:24:27;85.50;;;4.17;;
4895;SDS011;2463;49.948;8.472;2023-07-24T14:26:54;84.50;;;3.73;;
4895;SDS011;2463;49.948;8.472;2023-07-24T14:29:21;84.60;;;4.30;;
4895;SDS011;2463;49.948;8.472;2023-07-24T14:31:48;84.57;;;4.20;;
4895;SDS011;2463;49.948;8.472;2023-07-24T14:34:14;86.57;;;4.70;;
4895;SDS011;2463;49.948;8.472;2023-07-24T14:36:41;84.07;;;3.70;;
4895;SDS011;2463;49.948;8.472;2023-07-24T14:39:08;89.17;;;4.00;;
4895;SDS011;2463;49.948;8.472;2023-07-24T14:41:35;84.80;;;3.90;;
4895;SDS011;2463;49.948;8.472;2023-07-24T14:44:01;85.30;;;3.93;;
4895;SDS011;2463;49.948;8.472;2023-07-24T14:46:28;82.97;;;3.90;;
4895;SDS011;2463;49.948;8.472;2023-07-24T14:48:55;84.80;;;3.90;;
4895;SDS011;2463;49.948;8.472;2023-07-24T14:51:23;83.07;;;3.53;;
4895;SDS011;2463;49.948;8.472;2023-07-24T14:53:50;83.20;;;3.50;;
4895;SDS011;2463;49.948;8.472;2023-07-24T14:56:16;82.37;;;3.20;;
4895;SDS011;2463;49.948;8.472;2023-07-24T14:58:43;83.63;;;3.67;;
4895;SDS011;2463;49.948;8.472;2023-07-24T15:01:11;84.07;;;3.90;;
4895;SDS011;2463;49.948;8.472;2023-07-24T15:03:38;82.37;;;3.53;;
4895;SDS011;2463;49.948;8.472;2023-07-24T15:06:05;81.97;;;2.97;;